F/V Seeker — WTE5329 — position and weather

sailwx.info

Track history (hours):
 
Tides and Currents Weather Stations Pressure Air Temp Water Temp Dewpoint Dewpoint Depression Visibility Wind Speed Wind Dir Waves Ship Positions

F/V Seeker

Owner: COOPER, LAWRENCE E, NEWPORT, OR. More information available from US FCC via Universal Licensing System and Coast Guard Vessel Documentation Center.

Last reported at 2018-Jul-16 02:30 UTC. Time now 2018-Jul-16 02:39 UTC.
Position N 47°16' W 124°45'.

Length 30 m; draft 4 m.

Type: Fishing. MMSI: 368578000.

Date/timePositionNaut miles runAvg speedWind from/ knotsBaromVisibWave heightAir tempDewpointWater temp
2018-Jul-16 02:30N 47°16' W 124°45'4 9.1
2018-Jul-16 02:00N 47°20' W 124°48'1 1.2
2018-Jul-16 01:30N 47°19' W 124°48'1 1.9
2018-Jul-16 01:00N 47°18' W 124°47'2 3.3
2018-Jul-16 00:30N 47°18' W 124°45'1 2.5
2018-Jul-16 00:00N 47°17' W 124°44'2 4.8
2018-Jul-15 23:30N 47°18' W 124°47'4 6.5
2018-Jul-15 22:52N 47°22' W 124°47'0 1.1
2018-Jul-15 22:30N 47°22' W 124°48'1 2.6
2018-Jul-15 22:00N 47°21' W 124°48'2 3.1
2018-Jul-15 21:28N 47°19' W 124°47'2 3.5
2018-Jul-15 21:00N 47°18' W 124°46'2 3.3
2018-Jul-15 20:30N 47°16' W 124°45'2 4.3
2018-Jul-15 20:00N 47°14' W 124°44'5 9.6
2018-Jul-15 19:30N 47°10' W 124°41'5 9.7
2018-Jul-15 19:00N 47°05' W 124°38'5 9.7
2018-Jul-15 18:30N 47°01' W 124°35'5 9.9
2018-Jul-15 18:00N 46°56' W 124°33'5 9.6
2018-Jul-15 17:30N 46°52' W 124°30'5 9.6
2018-Jul-15 17:00N 46°48' W 124°27'5 9.7
2018-Jul-15 16:30N 46°43' W 124°24'5 9.7
2018-Jul-15 16:00N 46°39' W 124°22'5 9.6
2018-Jul-15 15:30N 46°34' W 124°19'5 9.5
2018-Jul-15 15:01N 46°30' W 124°16'5 9.4
2018-Jul-15 14:30N 46°25' W 124°14'5 9.5
2018-Jul-15 14:00N 46°21' W 124°11'5 9.5
2018-Jul-15 13:29N 46°17' W 124°08'612.8
2018-Jul-15 13:00N 46°14' W 123°60'713.3
2018-Jul-15 12:31N 46°12' W 123°51'4 7.3
2018-Jul-15 12:01N 46°12' W 123°46'0 0.0
2018-Jul-15 11:31N 46°12' W 123°46'0 0.0
2018-Jul-15 11:01N 46°12' W 123°46'0 0.0
2018-Jul-15 10:31N 46°12' W 123°46'0 0.0
2018-Jul-15 10:00N 46°12' W 123°46'0 0.0
2018-Jul-15 09:30N 46°12' W 123°46'0 0.0
2018-Jul-15 09:01N 46°12' W 123°46'0 0.0
2018-Jul-15 08:31N 46°12' W 123°46'0 0.0
2018-Jul-15 08:01N 46°12' W 123°46'0 0.0
2018-Jul-15 07:31N 46°12' W 123°46'0 0.0
2018-Jul-15 06:59N 46°12' W 123°46'0 0.0
2018-Jul-15 06:30N 46°12' W 123°46'0 0.0
2018-Jul-15 06:01N 46°12' W 123°46'0 0.0
2018-Jul-15 05:31N 46°12' W 123°46'0 0.0
2018-Jul-15 05:01N 46°12' W 123°46'0 0.0
2018-Jul-15 04:31N 46°12' W 123°46'0 0.0
2018-Jul-15 04:00N 46°12' W 123°46'0 0.0
2018-Jul-15 03:30N 46°12' W 123°46'0 0.0
2018-Jul-15 03:01N 46°12' W 123°46'1 2.6
2018-Jul-15 02:31N 46°12' W 123°47'3 7.0
2018-Jul-15 02:01N 46°11' W 123°52'3 6.6
2018-Jul-15 01:30N 46°12' W 123°57'3 6.7
2018-Jul-15 01:01N 46°15' W 124°00'3 6.7
2018-Jul-15 00:30N 46°16' W 124°05'4 8.5
2018-Jul-15 00:00N 46°19' W 124°08'810.4
2018-Jul-14 23:13N 46°27' W 124°13'210.4
2018-Jul-14 23:01N 46°29' W 124°14'510.6
2018-Jul-14 22:30N 46°34' W 124°17'510.6
2018-Jul-14 22:01N 46°38' W 124°20'510.5
2018-Jul-14 21:30N 46°43' W 124°23'510.2
2018-Jul-14 21:01N 46°48' W 124°25'5 9.8
2018-Jul-14 20:30N 46°53' W 124°28'4 7.9
2018-Jul-14 20:00N 46°56' W 124°30'510.0
2018-Jul-14 19:30N 47°01' W 124°33'1014.5
2018-Jul-14 18:49N 47°10' W 124°39'0 0.5
2018-Jul-14 18:29N 47°10' W 124°39'810.0
2018-Jul-14 17:42N 47°18' W 124°43'210.0
2018-Jul-14 17:30N 47°20' W 124°44'5 5.0
2018-Jul-14 16:29N 47°24' W 124°48'1 2.4
2018-Jul-14 15:56N 47°25' W 124°48'1 0.2
2018-Jul-14 09:56N 47°25' W 124°50'10 0.4
2018-Jul-13 09:15N 47°34' W 124°57'4 8.9
2018-Jul-13 08:46N 47°30' W 124°55'11 9.1
2018-Jul-13 07:35N 47°21' W 124°49'1 9.1
2018-Jul-13 07:29N 47°20' W 124°48'4 8.9
2018-Jul-13 06:59N 47°16' W 124°46'4 8.9
2018-Jul-13 06:30N 47°12' W 124°43'4 8.8
2018-Jul-13 06:01N 47°08' W 124°41'4 8.8
2018-Jul-13 05:31N 47°04' W 124°38'4 8.9
2018-Jul-13 05:00N 46°59' W 124°36'5 8.8
2018-Jul-13 04:30N 46°55' W 124°33'4 8.7
2018-Jul-13 04:01N 46°51' W 124°31'4 8.5
2018-Jul-13 03:31N 46°48' W 124°28'4 8.4
2018-Jul-13 03:01N 46°44' W 124°26'4 8.4
2018-Jul-13 02:30N 46°40' W 124°23'4 8.3
2018-Jul-13 02:00N 46°36' W 124°21'4 8.2
2018-Jul-13 01:31N 46°32' W 124°18'4 8.3
2018-Jul-13 01:00N 46°29' W 124°16'4 8.2
2018-Jul-13 00:30N 46°25' W 124°14'4 8.5
2018-Jul-13 00:01N 46°21' W 124°11'5 9.0
2018-Jul-12 23:30N 46°17' W 124°08'5 9.7
2018-Jul-12 23:00N 46°15' W 124°02'611.4
2018-Jul-12 22:30N 46°12' W 123°55'510.8
2018-Jul-12 22:01N 46°12' W 123°47'1 2.8
2018-Jul-12 21:30N 46°12' W 123°46'0 0.0
2018-Jul-12 21:00N 46°12' W 123°46'0 0.0
2018-Jul-12 20:30N 46°12' W 123°46'0 0.0
2018-Jul-12 19:37N 46°12' W 123°46'0 0.0
2018-Jul-12 19:30N 46°12' W 123°46'0 0.0
2018-Jul-12 19:00N 46°12' W 123°46'0 0.0
2018-Jul-12 18:31N 46°12' W 123°46'0 0.0
2018-Jul-12 18:00N 46°12' W 123°46'0 0.0
2018-Jul-12 17:22N 46°12' W 123°46'0 0.0
2018-Jul-12 17:01N 46°12' W 123°46'0 0.0
2018-Jul-12 16:31N 46°12' W 123°46'0 0.0
2018-Jul-12 16:01N 46°12' W 123°46'0 0.0
2018-Jul-12 15:31N 46°12' W 123°46'0 0.0
2018-Jul-12 15:00N 46°12' W 123°46'0 0.0
2018-Jul-12 14:30N 46°12' W 123°46'0 0.0
2018-Jul-12 14:00N 46°12' W 123°46'0 0.0
2018-Jul-12 13:31N 46°12' W 123°46'0 0.0
2018-Jul-12 13:00N 46°12' W 123°46'0 0.0
2018-Jul-12 12:18N 46°12' W 123°46'0 0.0
2018-Jul-12 12:01N 46°12' W 123°46'0 0.0
2018-Jul-12 11:31N 46°12' W 123°46'0 0.0
2018-Jul-12 10:35N 46°12' W 123°46'0 0.0
2018-Jul-12 10:31N 46°12' W 123°46'0 0.0
2018-Jul-12 09:48N 46°12' W 123°46'0 0.0
2018-Jul-12 09:31N 46°12' W 123°46'0 0.0
2018-Jul-12 08:54N 46°12' W 123°46'0 0.0
2018-Jul-12 08:30N 46°12' W 123°46'0 0.0
2018-Jul-12 07:58N 46°12' W 123°46'0 0.0
2018-Jul-12 07:30N 46°12' W 123°46'0 0.0
2018-Jul-12 06:59N 46°12' W 123°46'0 0.0
2018-Jul-12 06:31N 46°12' W 123°46'0 0.0
2018-Jul-12 06:00N 46°12' W 123°46'0 0.0
2018-Jul-12 05:30N 46°12' W 123°46'0 0.0
2018-Jul-12 05:01N 46°12' W 123°46'0 0.0
2018-Jul-12 04:24N 46°12' W 123°46'0 0.0
2018-Jul-12 04:00N 46°12' W 123°46'0 0.0
2018-Jul-12 03:30N 46°12' W 123°46'0 0.0
2018-Jul-12 02:49N 46°12' W 123°46'0 0.0
2018-Jul-12 02:30N 46°12' W 123°46'0 0.0
2018-Jul-12 02:01N 46°12' W 123°46'0 0.0
2018-Jul-12 01:31N 46°12' W 123°46'0 0.0
2018-Jul-12 01:00N 46°12' W 123°46'0 0.0
2018-Jul-12 00:31N 46°12' W 123°46'0 0.0
2018-Jul-12 00:00N 46°12' W 123°46'0 0.0
2018-Jul-11 23:31N 46°12' W 123°46'0 0.0
2018-Jul-11 23:01N 46°12' W 123°46'0 0.0
2018-Jul-11 22:30N 46°12' W 123°46'0 0.0
2018-Jul-11 22:01N 46°12' W 123°46'0 0.0
2018-Jul-11 21:31N 46°12' W 123°46'0 0.0
2018-Jul-11 21:00N 46°12' W 123°46'0 0.0
2018-Jul-11 20:31N 46°12' W 123°46'0 0.0
2018-Jul-11 20:00N 46°12' W 123°46'0 0.0
2018-Jul-11 19:30N 46°12' W 123°46'0 0.0
2018-Jul-11 19:00N 46°12' W 123°46'0 0.0
2018-Jul-11 18:31N 46°12' W 123°46'0 0.0
2018-Jul-11 18:00N 46°12' W 123°46'0 0.0
2018-Jul-11 17:30N 46°12' W 123°46'0 0.0
2018-Jul-11 17:01N 46°12' W 123°46'0 0.0
2018-Jul-11 16:30N 46°12' W 123°46'0 0.0
2018-Jul-11 16:00N 46°12' W 123°46'0 0.0
2018-Jul-11 15:31N 46°12' W 123°46'0 0.0
2018-Jul-11 15:01N 46°12' W 123°46'0 0.0
2018-Jul-11 14:31N 46°12' W 123°46'0 0.0
2018-Jul-11 14:01N 46°12' W 123°46'0 0.0
2018-Jul-11 13:31N 46°12' W 123°46'0 0.0
2018-Jul-11 13:00N 46°12' W 123°46'0 0.0
2018-Jul-11 12:30N 46°12' W 123°46'0 0.0
2018-Jul-11 12:01N 46°12' W 123°46'0 0.0
2018-Jul-11 11:31N 46°12' W 123°46'0 0.0
2018-Jul-11 11:01N 46°12' W 123°46'0 0.0
2018-Jul-11 10:19N 46°12' W 123°46'0 0.0
2018-Jul-11 10:01N 46°12' W 123°46'0 0.0
2018-Jul-11 09:31N 46°12' W 123°46'0 0.0
2018-Jul-11 09:00N 46°12' W 123°46'0 0.0
2018-Jul-11 08:31N 46°12' W 123°46'0 0.0
2018-Jul-11 08:00N 46°12' W 123°46'0 0.0
2018-Jul-11 07:30N 46°12' W 123°46'0 0.0
2018-Jul-11 06:59N 46°12' W 123°46'0 0.0
2018-Jul-11 06:31N 46°12' W 123°46'0 0.0
2018-Jul-11 06:01N 46°12' W 123°46'0 0.0
2018-Jul-11 05:31N 46°12' W 123°46'0 0.0
2018-Jul-11 05:00N 46°12' W 123°46'0 0.0
2018-Jul-11 04:30N 46°12' W 123°46'0 0.0
2018-Jul-11 04:00N 46°12' W 123°46'0 0.0
2018-Jul-11 03:30N 46°12' W 123°46'0 0.0
2018-Jul-11 03:00N 46°12' W 123°46'0 0.0
2018-Jul-11 02:30N 46°12' W 123°46'0 0.0
2018-Jul-11 02:01N 46°12' W 123°46'0 0.0
2018-Jul-11 01:31N 46°12' W 123°46'0 0.0
2018-Jul-11 01:01N 46°12' W 123°46'0 0.0
2018-Jul-11 00:30N 46°12' W 123°46'0 0.0
2018-Jul-11 00:00N 46°12' W 123°46'0 0.0
2018-Jul-10 23:30N 46°12' W 123°46'0 0.0
2018-Jul-10 23:01N 46°12' W 123°46'0 0.0
2018-Jul-10 22:31N 46°12' W 123°46'0 0.0
2018-Jul-10 22:00N 46°12' W 123°46'0 0.0
2018-Jul-10 21:31N 46°12' W 123°46'0 0.0
2018-Jul-10 21:00N 46°12' W 123°46'0 0.0
2018-Jul-10 20:30N 46°12' W 123°46'0 0.0
2018-Jul-10 20:01N 46°12' W 123°46'0 0.0
2018-Jul-10 19:31N 46°12' W 123°46'0 0.0
2018-Jul-10 19:00N 46°12' W 123°46'0 0.0
2018-Jul-10 18:30N 46°12' W 123°46'0 0.0
2018-Jul-10 18:01N 46°12' W 123°46'0 0.0
2018-Jul-10 17:31N 46°12' W 123°46'0 0.0
2018-Jul-10 17:01N 46°12' W 123°46'0 0.0
2018-Jul-10 16:12N 46°12' W 123°46'0 0.0
2018-Jul-10 16:01N 46°12' W 123°46'0 0.0
2018-Jul-10 15:30N 46°12' W 123°46'0 0.0
2018-Jul-10 15:01N 46°12' W 123°46'2 4.0
2018-Jul-10 14:30N 46°12' W 123°48'4 7.7
2018-Jul-10 14:01N 46°12' W 123°54'4 7.2
2018-Jul-10 13:31N 46°14' W 123°58'3 6.2
2018-Jul-10 13:00N 46°15' W 124°02'3 5.8
2018-Jul-10 12:31N 46°14' W 124°06'4 7.3
2018-Jul-10 12:01N 46°11' W 124°07'4 7.6
2018-Jul-10 11:30N 46°07' W 124°08'4 7.6
2018-Jul-10 11:00N 46°03' W 124°09'4 7.8
2018-Jul-10 10:31N 45°59' W 124°10'9 8.0
2018-Jul-10 09:25N 45°51' W 124°13'3 7.7
2018-Jul-10 09:00N 45°48' W 124°14'4 7.6
2018-Jul-10 08:31N 45°44' W 124°15'6 7.5
2018-Jul-10 07:40N 45°38' W 124°17'1 7.3
2018-Jul-10 07:31N 45°37' W 124°17'4 7.4
2018-Jul-10 06:59N 45°33' W 124°18'4 7.3
2018-Jul-10 06:30N 45°29' W 124°19'4 7.3
2018-Jul-10 06:01N 45°26' W 124°20'4 7.2
2018-Jul-10 05:31N 45°22' W 124°21'4 7.1
2018-Jul-10 04:59N 45°19' W 124°22'5 7.1
2018-Jul-10 04:15N 45°13' W 124°23'2 7.0
2018-Jul-10 04:01N 45°12' W 124°24'5 6.7
2018-Jul-10 03:19N 45°07' W 124°25'4 7.5
2018-Jul-10 02:47N 45°03' W 124°26'8 7.7
2018-Jul-10 01:45N 44°55' W 124°28'5 2.3
2018-Jul-09 23:49N 44°59' W 124°24'1 3.5
2018-Jul-09 23:24N 44°58' W 124°24'5 8.2
2018-Jul-09 22:45N 44°53' W 124°29'6 1.2
2018-Jul-09 17:35N 44°48' W 124°34'4 3.4
2018-Jul-09 16:26N 44°51' W 124°30'1 2.9
2018-Jul-09 15:57N 44°50' W 124°32'4 3.4
2018-Jul-09 14:39N 44°47' W 124°35'1 3.3
2018-Jul-09 14:22N 44°46' W 124°35'2 3.3
2018-Jul-09 13:51N 44°44' W 124°36'8 2.5
2018-Jul-09 10:39N 44°52' W 124°33'1 1.6
2018-Jul-09 09:57N 44°53' W 124°33'1 2.9
2018-Jul-09 09:30N 44°52' W 124°33'1 3.0
2018-Jul-09 09:00N 44°50' W 124°34'2 3.1
2018-Jul-09 08:27N 44°49' W 124°35'2 3.2
2018-Jul-09 07:57N 44°47' W 124°35'1 3.1
2018-Jul-09 07:28N 44°46' W 124°36'1 2.8
2018-Jul-09 06:59N 44°45' W 124°36'2 2.9
2018-Jul-09 06:20N 44°43' W 124°37'1 3.0
2018-Jul-09 06:00N 44°42' W 124°38'1 0.5
2018-Jul-09 04:15N 44°42' W 124°36'1 3.2
2018-Jul-09 03:58N 44°43' W 124°36'4 1.9
2018-Jul-09 01:47N 44°47' W 124°35'4 3.4
2018-Jul-09 00:45N 44°43' W 124°35'1 3.6
2018-Jul-09 00:24N 44°42' W 124°36'10 5.9
2018-Jul-08 22:45N 44°33' W 124°38'1110.4
2018-Jul-08 21:40N 44°24' W 124°48'3 0.6
2018-Jul-08 16:22N 44°21' W 124°51'2 3.1
2018-Jul-08 15:45N 44°20' W 124°52'1 3.1
2018-Jul-08 15:30N 44°19' W 124°53'2 1.5
2018-Jul-08 14:23N 44°20' W 124°51'2 3.2
2018-Jul-08 13:48N 44°21' W 124°49'0 1.1
2018-Jul-08 13:25N 44°21' W 124°50'3 5.8
2018-Jul-08 12:53N 44°23' W 124°47'3 5.7
2018-Jul-08 12:25N 44°26' W 124°47'3 5.3
2018-Jul-08 11:49N 44°29' W 124°46'2 5.5
2018-Jul-08 11:24N 44°31' W 124°45'2 5.4
2018-Jul-08 11:01N 44°33' W 124°44'7 6.1
2018-Jul-08 09:48N 44°40' W 124°41'3 6.3
2018-Jul-08 09:21N 44°43' W 124°40'2 6.5
2018-Jul-08 08:59N 44°45' W 124°39'6 6.5
2018-Jul-08 08:05N 44°51' W 124°36'1 6.4
2018-Jul-08 08:00N 44°51' W 124°36'9 6.6
2018-Jul-08 06:39N 44°60' W 124°33'1 7.0
2018-Jul-08 06:30N 45°01' W 124°32'3 7.0
2018-Jul-08 06:01N 45°04' W 124°31'4 6.9
2018-Jul-08 05:28N 45°08' W 124°29'4 7.6
2018-Jul-08 04:57N 45°11' W 124°27'4 8.8
2018-Jul-08 04:30N 45°15' W 124°25'5 9.3
2018-Jul-08 04:01N 45°19' W 124°23'5 9.2
2018-Jul-08 03:31N 45°24' W 124°23'7 8.8
2018-Jul-08 02:43N 45°31' W 124°20'2 8.6
2018-Jul-08 02:31N 45°32' W 124°19'4 8.7
2018-Jul-08 02:00N 45°36' W 124°17'4 8.6
2018-Jul-08 01:31N 45°40' W 124°14'4 8.9
2018-Jul-08 01:01N 45°44' W 124°11'5 9.1
2018-Jul-08 00:30N 45°49' W 124°10'5 8.9
2018-Jul-08 00:00N 45°53' W 124°09'4 8.8
2018-Jul-07 23:30N 45°57' W 124°09'4 8.9
2018-Jul-07 23:01N 46°02' W 124°09'5 8.8
2018-Jul-07 22:26N 46°07' W 124°10'2 4.6
2018-Jul-07 22:01N 46°09' W 124°08'4 8.9
2018-Jul-07 21:31N 46°13' W 124°06'5 9.1
2018-Jul-07 21:00N 46°15' W 124°00'612.0
2018-Jul-07 20:30N 46°12' W 123°53'510.8
2018-Jul-07 20:01N 46°12' W 123°45'0 0.9
2018-Jul-07 19:31N 46°12' W 123°46'0 0.0
2018-Jul-07 18:48N 46°12' W 123°46'0 0.0
2018-Jul-07 18:30N 46°12' W 123°46'0 0.0
2018-Jul-07 18:00N 46°12' W 123°46'0 0.0
2018-Jul-07 17:30N 46°12' W 123°46'0 0.0
2018-Jul-07 17:00N 46°12' W 123°46'0 0.0
2018-Jul-07 16:31N 46°12' W 123°46'0 0.0
2018-Jul-07 15:56N 46°12' W 123°46'0 0.0
2018-Jul-07 15:31N 46°12' W 123°46'0 0.0
2018-Jul-07 15:01N 46°12' W 123°46'0 0.0
2018-Jul-07 14:30N 46°12' W 123°46'0 0.0
2018-Jul-07 14:00N 46°12' W 123°46'3 2.3
2018-Jul-07 12:49N 46°12' W 123°49'3 8.7
2018-Jul-07 12:31N 46°12' W 123°53'4 8.3
2018-Jul-07 12:00N 46°14' W 123°58'4 7.9
2018-Jul-07 11:31N 46°15' W 124°04'4 7.7
2018-Jul-07 11:01N 46°12' W 124°06'5 9.0
2018-Jul-07 10:30N 46°07' W 124°07'5 9.1
2018-Jul-07 10:01N 46°03' W 124°07'5 9.5
2018-Jul-07 09:31N 45°58' W 124°08'5 9.1
2018-Jul-07 09:00N 45°53' W 124°08'4 9.1
2018-Jul-07 08:30N 45°49' W 124°09'5 9.0
2018-Jul-07 08:01N 45°44' W 124°09'5 9.1
2018-Jul-07 07:30N 45°40' W 124°10'5 9.0
2018-Jul-07 06:59N 45°35' W 124°10'4 8.8
2018-Jul-07 06:31N 45°31' W 124°11'4 8.8
2018-Jul-07 06:01N 45°26' W 124°11'4 8.6
2018-Jul-07 05:30N 45°22' W 124°12'4 8.6
2018-Jul-07 05:00N 45°18' W 124°12'4 8.6
2018-Jul-07 04:30N 45°14' W 124°13'16 0.7
2018-Jul-06 04:20N 45°09' W 124°34'3 8.9
2018-Jul-06 03:59N 45°12' W 124°33'4 9.2
2018-Jul-06 03:30N 45°16' W 124°31'5 9.3
2018-Jul-06 02:59N 45°21' W 124°29'4 9.1
2018-Jul-06 02:30N 45°25' W 124°27'  
Track history (hours):
 
Tides and Currents Weather Stations Pressure Air Temp Water Temp Dewpoint Dewpoint Depression Visibility Wind Speed Wind Dir Waves Ship Positions

F/V Seeker

Owner: COOPER, LAWRENCE E, NEWPORT, OR. More information available from US FCC via Universal Licensing System and Coast Guard Vessel Documentation Center.

Last reported at 2018-Jul-16 02:30 UTC. Time now 2018-Jul-16 02:39 UTC.
Position N 47°16' W 124°45'.

Length 30 m; draft 4 m.

Type: Fishing. MMSI: 368578000.

Date/timePositionNaut miles runAvg speedWind from/ knotsBaromVisibWave heightAir tempDewpointWater temp
2018-Jul-16 02:30N 47°16' W 124°45'4 9.1
2018-Jul-16 02:00N 47°20' W 124°48'1 1.2
2018-Jul-16 01:30N 47°19' W 124°48'1 1.9
2018-Jul-16 01:00N 47°18' W 124°47'2 3.3
2018-Jul-16 00:30N 47°18' W 124°45'1 2.5
2018-Jul-16 00:00N 47°17' W 124°44'2 4.8
2018-Jul-15 23:30N 47°18' W 124°47'4 6.5
2018-Jul-15 22:52N 47°22' W 124°47'0 1.1
2018-Jul-15 22:30N 47°22' W 124°48'1 2.6
2018-Jul-15 22:00N 47°21' W 124°48'2 3.1
2018-Jul-15 21:28N 47°19' W 124°47'2 3.5
2018-Jul-15 21:00N 47°18' W 124°46'2 3.3
2018-Jul-15 20:30N 47°16' W 124°45'2 4.3
2018-Jul-15 20:00N 47°14' W 124°44'5 9.6
2018-Jul-15 19:30N 47°10' W 124°41'5 9.7
2018-Jul-15 19:00N 47°05' W 124°38'5 9.7
2018-Jul-15 18:30N 47°01' W 124°35'5 9.9
2018-Jul-15 18:00N 46°56' W 124°33'5 9.6
2018-Jul-15 17:30N 46°52' W 124°30'5 9.6
2018-Jul-15 17:00N 46°48' W 124°27'5 9.7
2018-Jul-15 16:30N 46°43' W 124°24'5 9.7
2018-Jul-15 16:00N 46°39' W 124°22'5 9.6
2018-Jul-15 15:30N 46°34' W 124°19'5 9.5
2018-Jul-15 15:01N 46°30' W 124°16'5 9.4
2018-Jul-15 14:30N 46°25' W 124°14'5 9.5
2018-Jul-15 14:00N 46°21' W 124°11'5 9.5
2018-Jul-15 13:29N 46°17' W 124°08'612.8
2018-Jul-15 13:00N 46°14' W 123°60'713.3
2018-Jul-15 12:31N 46°12' W 123°51'4 7.3
2018-Jul-15 12:01N 46°12' W 123°46'0 0.0
2018-Jul-15 11:31N 46°12' W 123°46'0 0.0
2018-Jul-15 11:01N 46°12' W 123°46'0 0.0
2018-Jul-15 10:31N 46°12' W 123°46'0 0.0
2018-Jul-15 10:00N 46°12' W 123°46'0 0.0
2018-Jul-15 09:30N 46°12' W 123°46'0 0.0
2018-Jul-15 09:01N 46°12' W 123°46'0 0.0
2018-Jul-15 08:31N 46°12' W 123°46'0 0.0
2018-Jul-15 08:01N 46°12' W 123°46'0 0.0
2018-Jul-15 07:31N 46°12' W 123°46'0 0.0
2018-Jul-15 06:59N 46°12' W 123°46'0 0.0
2018-Jul-15 06:30N 46°12' W 123°46'0 0.0
2018-Jul-15 06:01N 46°12' W 123°46'0 0.0
2018-Jul-15 05:31N 46°12' W 123°46'0 0.0
2018-Jul-15 05:01N 46°12' W 123°46'0 0.0
2018-Jul-15 04:31N 46°12' W 123°46'0 0.0
2018-Jul-15 04:00N 46°12' W 123°46'0 0.0
2018-Jul-15 03:30N 46°12' W 123°46'0 0.0
2018-Jul-15 03:01N 46°12' W 123°46'1 2.6
2018-Jul-15 02:31N 46°12' W 123°47'3 7.0
2018-Jul-15 02:01N 46°11' W 123°52'3 6.6
2018-Jul-15 01:30N 46°12' W 123°57'3 6.7
2018-Jul-15 01:01N 46°15' W 124°00'3 6.7
2018-Jul-15 00:30N 46°16' W 124°05'4 8.5
2018-Jul-15 00:00N 46°19' W 124°08'810.4
2018-Jul-14 23:13N 46°27' W 124°13'210.4
2018-Jul-14 23:01N 46°29' W 124°14'510.6
2018-Jul-14 22:30N 46°34' W 124°17'510.6
2018-Jul-14 22:01N 46°38' W 124°20'510.5
2018-Jul-14 21:30N 46°43' W 124°23'510.2
2018-Jul-14 21:01N 46°48' W 124°25'5 9.8
2018-Jul-14 20:30N 46°53' W 124°28'4 7.9
2018-Jul-14 20:00N 46°56' W 124°30'510.0
2018-Jul-14 19:30N 47°01' W 124°33'1014.5
2018-Jul-14 18:49N 47°10' W 124°39'0 0.5
2018-Jul-14 18:29N 47°10' W 124°39'810.0
2018-Jul-14 17:42N 47°18' W 124°43'210.0
2018-Jul-14 17:30N 47°20' W 124°44'5 5.0
2018-Jul-14 16:29N 47°24' W 124°48'1 2.4
2018-Jul-14 15:56N 47°25' W 124°48'1 0.2
2018-Jul-14 09:56N 47°25' W 124°50'10 0.4
2018-Jul-13 09:15N 47°34' W 124°57'4 8.9
2018-Jul-13 08:46N 47°30' W 124°55'11 9.1
2018-Jul-13 07:35N 47°21' W 124°49'1 9.1
2018-Jul-13 07:29N 47°20' W 124°48'4 8.9
2018-Jul-13 06:59N 47°16' W 124°46'4 8.9
2018-Jul-13 06:30N 47°12' W 124°43'4 8.8
2018-Jul-13 06:01N 47°08' W 124°41'4 8.8
2018-Jul-13 05:31N 47°04' W 124°38'4 8.9
2018-Jul-13 05:00N 46°59' W 124°36'5 8.8
2018-Jul-13 04:30N 46°55' W 124°33'4 8.7
2018-Jul-13 04:01N 46°51' W 124°31'4 8.5
2018-Jul-13 03:31N 46°48' W 124°28'4 8.4
2018-Jul-13 03:01N 46°44' W 124°26'4 8.4
2018-Jul-13 02:30N 46°40' W 124°23'4 8.3
2018-Jul-13 02:00N 46°36' W 124°21'4 8.2
2018-Jul-13 01:31N 46°32' W 124°18'4 8.3
2018-Jul-13 01:00N 46°29' W 124°16'4 8.2
2018-Jul-13 00:30N 46°25' W 124°14'4 8.5
2018-Jul-13 00:01N 46°21' W 124°11'5 9.0
2018-Jul-12 23:30N 46°17' W 124°08'5 9.7
2018-Jul-12 23:00N 46°15' W 124°02'611.4
2018-Jul-12 22:30N 46°12' W 123°55'510.8
2018-Jul-12 22:01N 46°12' W 123°47'1 2.8
2018-Jul-12 21:30N 46°12' W 123°46'0 0.0
2018-Jul-12 21:00N 46°12' W 123°46'0 0.0
2018-Jul-12 20:30N 46°12' W 123°46'0 0.0
2018-Jul-12 19:37N 46°12' W 123°46'0 0.0
2018-Jul-12 19:30N 46°12' W 123°46'0 0.0
2018-Jul-12 19:00N 46°12' W 123°46'0 0.0
2018-Jul-12 18:31N 46°12' W 123°46'0 0.0
2018-Jul-12 18:00N 46°12' W 123°46'0 0.0
2018-Jul-12 17:22N 46°12' W 123°46'0 0.0
2018-Jul-12 17:01N 46°12' W 123°46'0 0.0
2018-Jul-12 16:31N 46°12' W 123°46'0 0.0
2018-Jul-12 16:01N 46°12' W 123°46'0 0.0
2018-Jul-12 15:31N 46°12' W 123°46'0 0.0
2018-Jul-12 15:00N 46°12' W 123°46'0 0.0
2018-Jul-12 14:30N 46°12' W 123°46'0 0.0
2018-Jul-12 14:00N 46°12' W 123°46'0 0.0
2018-Jul-12 13:31N 46°12' W 123°46'0 0.0
2018-Jul-12 13:00N 46°12' W 123°46'0 0.0
2018-Jul-12 12:18N 46°12' W 123°46'0 0.0
2018-Jul-12 12:01N 46°12' W 123°46'0 0.0
2018-Jul-12 11:31N 46°12' W 123°46'0 0.0
2018-Jul-12 10:35N 46°12' W 123°46'0 0.0
2018-Jul-12 10:31N 46°12' W 123°46'0 0.0
2018-Jul-12 09:48N 46°12' W 123°46'0 0.0
2018-Jul-12 09:31N 46°12' W 123°46'0 0.0
2018-Jul-12 08:54N 46°12' W 123°46'0 0.0
2018-Jul-12 08:30N 46°12' W 123°46'0 0.0
2018-Jul-12 07:58N 46°12' W 123°46'0 0.0
2018-Jul-12 07:30N 46°12' W 123°46'0 0.0
2018-Jul-12 06:59N 46°12' W 123°46'0 0.0
2018-Jul-12 06:31N 46°12' W 123°46'0 0.0
2018-Jul-12 06:00N 46°12' W 123°46'0 0.0
2018-Jul-12 05:30N 46°12' W 123°46'0 0.0
2018-Jul-12 05:01N 46°12' W 123°46'0 0.0
2018-Jul-12 04:24N 46°12' W 123°46'0 0.0
2018-Jul-12 04:00N 46°12' W 123°46'0 0.0
2018-Jul-12 03:30N 46°12' W 123°46'0 0.0
2018-Jul-12 02:49N 46°12' W 123°46'0 0.0
2018-Jul-12 02:30N 46°12' W 123°46'0 0.0
2018-Jul-12 02:01N 46°12' W 123°46'0 0.0
2018-Jul-12 01:31N 46°12' W 123°46'0 0.0
2018-Jul-12 01:00N 46°12' W 123°46'0 0.0
2018-Jul-12 00:31N 46°12' W 123°46'0 0.0
2018-Jul-12 00:00N 46°12' W 123°46'0 0.0
2018-Jul-11 23:31N 46°12' W 123°46'0 0.0
2018-Jul-11 23:01N 46°12' W 123°46'0 0.0
2018-Jul-11 22:30N 46°12' W 123°46'0 0.0
2018-Jul-11 22:01N 46°12' W 123°46'0 0.0
2018-Jul-11 21:31N 46°12' W 123°46'0 0.0
2018-Jul-11 21:00N 46°12' W 123°46'0 0.0
2018-Jul-11 20:31N 46°12' W 123°46'0 0.0
2018-Jul-11 20:00N 46°12' W 123°46'0 0.0
2018-Jul-11 19:30N 46°12' W 123°46'0 0.0
2018-Jul-11 19:00N 46°12' W 123°46'0 0.0
2018-Jul-11 18:31N 46°12' W 123°46'0 0.0
2018-Jul-11 18:00N 46°12' W 123°46'0 0.0
2018-Jul-11 17:30N 46°12' W 123°46'0 0.0
2018-Jul-11 17:01N 46°12' W 123°46'0 0.0
2018-Jul-11 16:30N 46°12' W 123°46'0 0.0
2018-Jul-11 16:00N 46°12' W 123°46'0 0.0
2018-Jul-11 15:31N 46°12' W 123°46'0 0.0
2018-Jul-11 15:01N 46°12' W 123°46'0 0.0
2018-Jul-11 14:31N 46°12' W 123°46'0 0.0
2018-Jul-11 14:01N 46°12' W 123°46'0 0.0
2018-Jul-11 13:31N 46°12' W 123°46'0 0.0
2018-Jul-11 13:00N 46°12' W 123°46'0 0.0
2018-Jul-11 12:30N 46°12' W 123°46'0 0.0
2018-Jul-11 12:01N 46°12' W 123°46'0 0.0
2018-Jul-11 11:31N 46°12' W 123°46'0 0.0
2018-Jul-11 11:01N 46°12' W 123°46'0 0.0
2018-Jul-11 10:19N 46°12' W 123°46'0 0.0
2018-Jul-11 10:01N 46°12' W 123°46'0 0.0
2018-Jul-11 09:31N 46°12' W 123°46'0 0.0
2018-Jul-11 09:00N 46°12' W 123°46'0 0.0
2018-Jul-11 08:31N 46°12' W 123°46'0 0.0
2018-Jul-11 08:00N 46°12' W 123°46'0 0.0
2018-Jul-11 07:30N 46°12' W 123°46'0 0.0
2018-Jul-11 06:59N 46°12' W 123°46'0 0.0
2018-Jul-11 06:31N 46°12' W 123°46'0 0.0
2018-Jul-11 06:01N 46°12' W 123°46'0 0.0
2018-Jul-11 05:31N 46°12' W 123°46'0 0.0
2018-Jul-11 05:00N 46°12' W 123°46'0 0.0
2018-Jul-11 04:30N 46°12' W 123°46'0 0.0
2018-Jul-11 04:00N 46°12' W 123°46'0 0.0
2018-Jul-11 03:30N 46°12' W 123°46'0 0.0
2018-Jul-11 03:00N 46°12' W 123°46'0 0.0
2018-Jul-11 02:30N 46°12' W 123°46'0 0.0
2018-Jul-11 02:01N 46°12' W 123°46'0 0.0
2018-Jul-11 01:31N 46°12' W 123°46'0 0.0
2018-Jul-11 01:01N 46°12' W 123°46'0 0.0
2018-Jul-11 00:30N 46°12' W 123°46'0 0.0
2018-Jul-11 00:00N 46°12' W 123°46'0 0.0
2018-Jul-10 23:30N 46°12' W 123°46'0 0.0
2018-Jul-10 23:01N 46°12' W 123°46'0 0.0
2018-Jul-10 22:31N 46°12' W 123°46'0 0.0
2018-Jul-10 22:00N 46°12' W 123°46'0 0.0
2018-Jul-10 21:31N 46°12' W 123°46'0 0.0
2018-Jul-10 21:00N 46°12' W 123°46'0 0.0
2018-Jul-10 20:30N 46°12' W 123°46'0 0.0
2018-Jul-10 20:01N 46°12' W 123°46'0 0.0
2018-Jul-10 19:31N 46°12' W 123°46'0 0.0
2018-Jul-10 19:00N 46°12' W 123°46'0 0.0
2018-Jul-10 18:30N 46°12' W 123°46'0 0.0
2018-Jul-10 18:01N 46°12' W 123°46'0 0.0
2018-Jul-10 17:31N 46°12' W 123°46'0 0.0
2018-Jul-10 17:01N 46°12' W 123°46'0 0.0
2018-Jul-10 16:12N 46°12' W 123°46'0 0.0
2018-Jul-10 16:01N 46°12' W 123°46'0 0.0
2018-Jul-10 15:30N 46°12' W 123°46'0 0.0
2018-Jul-10 15:01N 46°12' W 123°46'2 4.0
2018-Jul-10 14:30N 46°12' W 123°48'4 7.7
2018-Jul-10 14:01N 46°12' W 123°54'4 7.2
2018-Jul-10 13:31N 46°14' W 123°58'3 6.2
2018-Jul-10 13:00N 46°15' W 124°02'3 5.8
2018-Jul-10 12:31N 46°14' W 124°06'4 7.3
2018-Jul-10 12:01N 46°11' W 124°07'4 7.6
2018-Jul-10 11:30N 46°07' W 124°08'4 7.6
2018-Jul-10 11:00N 46°03' W 124°09'4 7.8
2018-Jul-10 10:31N 45°59' W 124°10'9 8.0
2018-Jul-10 09:25N 45°51' W 124°13'3 7.7
2018-Jul-10 09:00N 45°48' W 124°14'4 7.6
2018-Jul-10 08:31N 45°44' W 124°15'6 7.5
2018-Jul-10 07:40N 45°38' W 124°17'1 7.3
2018-Jul-10 07:31N 45°37' W 124°17'4 7.4
2018-Jul-10 06:59N 45°33' W 124°18'4 7.3
2018-Jul-10 06:30N 45°29' W 124°19'4 7.3
2018-Jul-10 06:01N 45°26' W 124°20'4 7.2
2018-Jul-10 05:31N 45°22' W 124°21'4 7.1
2018-Jul-10 04:59N 45°19' W 124°22'5 7.1
2018-Jul-10 04:15N 45°13' W 124°23'2 7.0
2018-Jul-10 04:01N 45°12' W 124°24'5 6.7
2018-Jul-10 03:19N 45°07' W 124°25'4 7.5
2018-Jul-10 02:47N 45°03' W 124°26'8 7.7
2018-Jul-10 01:45N 44°55' W 124°28'5 2.3
2018-Jul-09 23:49N 44°59' W 124°24'1 3.5
2018-Jul-09 23:24N 44°58' W 124°24'5 8.2
2018-Jul-09 22:45N 44°53' W 124°29'6 1.2
2018-Jul-09 17:35N 44°48' W 124°34'4 3.4
2018-Jul-09 16:26N 44°51' W 124°30'1 2.9
2018-Jul-09 15:57N 44°50' W 124°32'4 3.4
2018-Jul-09 14:39N 44°47' W 124°35'1 3.3
2018-Jul-09 14:22N 44°46' W 124°35'2 3.3
2018-Jul-09 13:51N 44°44' W 124°36'8 2.5
2018-Jul-09 10:39N 44°52' W 124°33'1 1.6
2018-Jul-09 09:57N 44°53' W 124°33'1 2.9
2018-Jul-09 09:30N 44°52' W 124°33'1 3.0
2018-Jul-09 09:00N 44°50' W 124°34'2 3.1
2018-Jul-09 08:27N 44°49' W 124°35'2 3.2
2018-Jul-09 07:57N 44°47' W 124°35'1 3.1
2018-Jul-09 07:28N 44°46' W 124°36'1 2.8
2018-Jul-09 06:59N 44°45' W 124°36'2 2.9
2018-Jul-09 06:20N 44°43' W 124°37'1 3.0
2018-Jul-09 06:00N 44°42' W 124°38'1 0.5
2018-Jul-09 04:15N 44°42' W 124°36'1 3.2
2018-Jul-09 03:58N 44°43' W 124°36'4 1.9
2018-Jul-09 01:47N 44°47' W 124°35'4 3.4
2018-Jul-09 00:45N 44°43' W 124°35'1 3.6
2018-Jul-09 00:24N 44°42' W 124°36'10 5.9
2018-Jul-08 22:45N 44°33' W 124°38'1110.4
2018-Jul-08 21:40N 44°24' W 124°48'3 0.6
2018-Jul-08 16:22N 44°21' W 124°51'2 3.1
2018-Jul-08 15:45N 44°20' W 124°52'1 3.1
2018-Jul-08 15:30N 44°19' W 124°53'2 1.5
2018-Jul-08 14:23N 44°20' W 124°51'2 3.2
2018-Jul-08 13:48N 44°21' W 124°49'0 1.1
2018-Jul-08 13:25N 44°21' W 124°50'3 5.8
2018-Jul-08 12:53N 44°23' W 124°47'3 5.7
2018-Jul-08 12:25N 44°26' W 124°47'3 5.3
2018-Jul-08 11:49N 44°29' W 124°46'2 5.5
2018-Jul-08 11:24N 44°31' W 124°45'2 5.4
2018-Jul-08 11:01N 44°33' W 124°44'7 6.1
2018-Jul-08 09:48N 44°40' W 124°41'3 6.3
2018-Jul-08 09:21N 44°43' W 124°40'2 6.5
2018-Jul-08 08:59N 44°45' W 124°39'6 6.5
2018-Jul-08 08:05N 44°51' W 124°36'1 6.4
2018-Jul-08 08:00N 44°51' W 124°36'9 6.6
2018-Jul-08 06:39N 44°60' W 124°33'1 7.0
2018-Jul-08 06:30N 45°01' W 124°32'3 7.0
2018-Jul-08 06:01N 45°04' W 124°31'4 6.9
2018-Jul-08 05:28N 45°08' W 124°29'4 7.6
2018-Jul-08 04:57N 45°11' W 124°27'4 8.8
2018-Jul-08 04:30N 45°15' W 124°25'5 9.3
2018-Jul-08 04:01N 45°19' W 124°23'5 9.2
2018-Jul-08 03:31N 45°24' W 124°23'7 8.8
2018-Jul-08 02:43N 45°31' W 124°20'2 8.6
2018-Jul-08 02:31N 45°32' W 124°19'4 8.7
2018-Jul-08 02:00N 45°36' W 124°17'4 8.6
2018-Jul-08 01:31N 45°40' W 124°14'4 8.9
2018-Jul-08 01:01N 45°44' W 124°11'5 9.1
2018-Jul-08 00:30N 45°49' W 124°10'5 8.9
2018-Jul-08 00:00N 45°53' W 124°09'4 8.8
2018-Jul-07 23:30N 45°57' W 124°09'4 8.9
2018-Jul-07 23:01N 46°02' W 124°09'5 8.8
2018-Jul-07 22:26N 46°07' W 124°10'2 4.6
2018-Jul-07 22:01N 46°09' W 124°08'4 8.9
2018-Jul-07 21:31N 46°13' W 124°06'5 9.1
2018-Jul-07 21:00N 46°15' W 124°00'612.0
2018-Jul-07 20:30N 46°12' W 123°53'510.8
2018-Jul-07 20:01N 46°12' W 123°45'0 0.9
2018-Jul-07 19:31N 46°12' W 123°46'0 0.0
2018-Jul-07 18:48N 46°12' W 123°46'0 0.0
2018-Jul-07 18:30N 46°12' W 123°46'0 0.0
2018-Jul-07 18:00N 46°12' W 123°46'0 0.0
2018-Jul-07 17:30N 46°12' W 123°46'0 0.0
2018-Jul-07 17:00N 46°12' W 123°46'0 0.0
2018-Jul-07 16:31N 46°12' W 123°46'0 0.0
2018-Jul-07 15:56N 46°12' W 123°46'0 0.0
2018-Jul-07 15:31N 46°12' W 123°46'0 0.0
2018-Jul-07 15:01N 46°12' W 123°46'0 0.0
2018-Jul-07 14:30N 46°12' W 123°46'0 0.0
2018-Jul-07 14:00N 46°12' W 123°46'3 2.3
2018-Jul-07 12:49N 46°12' W 123°49'3 8.7
2018-Jul-07 12:31N 46°12' W 123°53'4 8.3
2018-Jul-07 12:00N 46°14' W 123°58'4 7.9
2018-Jul-07 11:31N 46°15' W 124°04'4 7.7
2018-Jul-07 11:01N 46°12' W 124°06'5 9.0
2018-Jul-07 10:30N 46°07' W 124°07'5 9.1
2018-Jul-07 10:01N 46°03' W 124°07'5 9.5
2018-Jul-07 09:31N 45°58' W 124°08'5 9.1
2018-Jul-07 09:00N 45°53' W 124°08'4 9.1
2018-Jul-07 08:30N 45°49' W 124°09'5 9.0
2018-Jul-07 08:01N 45°44' W 124°09'5 9.1
2018-Jul-07 07:30N 45°40' W 124°10'5 9.0
2018-Jul-07 06:59N 45°35' W 124°10'4 8.8
2018-Jul-07 06:31N 45°31' W 124°11'4 8.8
2018-Jul-07 06:01N 45°26' W 124°11'4 8.6
2018-Jul-07 05:30N 45°22' W 124°12'4 8.6
2018-Jul-07 05:00N 45°18' W 124°12'4 8.6
2018-Jul-07 04:30N 45°14' W 124°13'16 0.7
2018-Jul-06 04:20N 45°09' W 124°34'3 8.9
2018-Jul-06 03:59N 45°12' W 124°33'4 9.2
2018-Jul-06 03:30N 45°16' W 124°31'5 9.3
2018-Jul-06 02:59N 45°21' W 124°29'4 9.1
2018-Jul-06 02:30N 45°25' W 124°27'  

Dump ship's entire track history